Coronel E Carvajal Airport
SEMC : now visible

Airfield :











YOU CAN JOIN US ON...

 
LOGIN :

Register | Disclaimer

   EN    FR    IT 

 









Legend :    VFR   Marginal VFR   IFR   Intensive IFR   Very Intensive IFR
Visi :
Ceiling :
>= 8 km
>= 3000ft
5 to 8 km
1000 to 3000 ft
1500m to 5 km
500 to 1000 ft
800 to 1500m
200 to 500 ft
< 800m
< 200 ft
Symbols :   Thunderstorms  Fog  Heavy snow  Heavy precipitations  Wind > 20 kt






- Airport Elevation : 3452 ft
- IATA code : XMS


SEMC - Coronel E Carvajal

CURRENT METAR :
  • 151700Z 06007KT 9999 SCT030 SCT100 25/18 Q1018 RMK A3007

EXPIRED METARs :
  • 151600Z 04004KT 9999 SCT030 SCT100 24/18 Q1018 RMK A3008
  • 151500Z 04003KT 9999 SCT026 BKN100 23/18 Q1019 RMK A3010

TAF N/A



MET'MAP, your aeronautical weather chart ! - Copyright ORBIFLY December 2007 - Disclaimer

ORBIFLY MET'MAP TEAM :

Programming & Development : Alexandra Zaïnal
Concept & original design : Baudouin d'Aumeries
Assistance for programming : Marc-Olivier Méhu
Technical & hardware support : Manuel Goepfert

Contact : metmap@orbifly.com




SOURCES & CREDITS :

   NOAA       Earth
Advisory